Time;durP1;ratioP1;P1;durP2;ratioP2;P2;SDS_P1;SDS_P2;PMS_P1;PMS_P2;Temp;Humidity;BMP_temperature;BMP_pressure;BME280_temperature;BME280_humidity;BME280_pressure;Samples;Min_cycle;Max_cycle;Signal;HPM_P1;HPM_P2
2023/07/29 00:02:11;;;;;;;0.50;0.50;;;17.20;99.90;;;;;;5013903;28;20446;-84
2023/07/29 00:04:38;;;;;;;0.70;0.50;;;17.20;99.90;;;;;;5014034;28;20478;-84
2023/07/29 00:07:05;;;;;;;0.50;0.50;;;17.30;99.90;;;;;;5014066;28;20459;-83
2023/07/29 00:09:33;;;;;;;0.70;0.50;;;17.20;99.90;;;;;;5013652;28;20494;-84
2023/07/29 00:12:00;;;;;;;0.60;0.40;;;17.30;99.90;;;;;;5013864;28;20458;-83
2023/07/29 00:14:27;;;;;;;0.80;0.70;;;17.20;99.90;;;;;;5014132;28;20475;-83
2023/07/29 00:16:53;;;;;;;1.00;0.73;;;17.10;99.90;;;;;;5014137;28;20436;-86
2023/07/29 00:19:23;;;;;;;0.60;0.60;;;17.10;99.90;;;;;;5014056;28;20467;-86
2023/07/29 00:21:50;;;;;;;0.90;0.87;;;17.20;99.90;;;;;;5013679;28;20455;-86
2023/07/29 00:24:16;;;;;;;1.00;0.63;;;17.10;99.90;;;;;;5013915;28;20474;-86
2023/07/29 00:26:44;;;;;;;0.97;0.50;;;17.20;99.90;;;;;;5013968;28;20455;-86
2023/07/29 00:29:11;;;;;;;0.50;0.50;;;17.20;99.90;;;;;;5013550;28;20486;-86
2023/07/29 00:31:38;;;;;;;0.50;0.50;;;17.20;99.90;;;;;;5013886;28;20443;-85
2023/07/29 00:34:05;;;;;;;1.50;0.77;;;17.20;99.90;;;;;;5013780;28;20502;-87
2023/07/29 00:36:31;;;;;;;4.33;0.90;;;17.20;99.90;;;;;;5013931;28;20444;-87
2023/07/29 00:38:58;;;;;;;1.53;0.57;;;17.20;99.90;;;;;;5013876;28;20815;-87
2023/07/29 00:41:26;;;;;;;0.60;0.50;;;17.20;99.90;;;;;;5014145;28;20419;-87
2023/07/29 00:43:54;;;;;;;0.50;0.50;;;17.20;99.90;;;;;;5013911;28;20960;-87
2023/07/29 00:46:22;;;;;;;1.33;0.60;;;17.20;99.90;;;;;;5013840;28;20794;-87
2023/07/29 00:48:49;;;;;;;0.47;0.47;;;17.30;99.90;;;;;;5013865;28;20583;-87
2023/07/29 00:51:16;;;;;;;0.50;0.50;;;17.20;99.90;;;;;;5013560;28;20451;-87
2023/07/29 00:53:43;;;;;;;0.60;0.60;;;17.20;99.90;;;;;;5013818;28;20468;-83
2023/07/29 00:56:09;;;;;;;0.50;0.50;;;17.10;99.90;;;;;;5013481;28;20447;-83
2023/07/29 00:58:36;;;;;;;0.77;0.77;;;17.10;99.90;;;;;;5013421;28;20452;-83
2023/07/29 01:01:04;;;;;;;0.60;0.60;;;17.20;99.90;;;;;;5013426;28;20816;-83
2023/07/29 01:03:32;;;;;;;0.57;0.57;;;17.20;99.90;;;;;;5013291;28;20483;-83
2023/07/29 01:06:09;;;;;;;0.83;0.70;;;17.20;99.90;;;;;;5013384;28;20448;-83
2023/07/29 01:08:43;;;;;;;1.07;0.80;;;17.20;99.90;;;;;;5013538;28;20475;-83
2023/07/29 01:11:23;;;;;;;0.60;0.60;;;17.20;99.90;;;;;;5013377;28;20435;-83
2023/07/29 01:13:58;;;;;;;0.50;0.40;;;17.20;99.90;;;;;;5013072;28;20452;-83
2023/07/29 01:16:31;;;;;;;0.60;0.50;;;17.20;99.90;;;;;;5013046;28;20443;-82
2023/07/29 01:19:05;;;;;;;0.40;0.40;;;17.20;99.90;;;;;;5013459;28;20770;-83
2023/07/29 01:21:33;;;;;;;0.53;0.50;;;17.20;99.90;;;;;;5013904;28;20440;-83
2023/07/29 01:24:01;;;;;;;2.23;0.60;;;17.20;99.90;;;;;;5013442;28;20955;-83
2023/07/29 01:26:29;;;;;;;0.50;0.50;;;17.20;99.90;;;;;;5013126;28;20475;-83
2023/07/29 01:28:56;;;;;;;0.83;0.50;;;17.10;99.90;;;;;;5012870;28;20487;-83
2023/07/29 01:31:33;;;;;;;0.60;0.60;;;17.10;99.90;;;;;;5016630;28;20447;-83
2023/07/29 01:34:06;;;;;;;0.70;0.67;;;17.10;99.90;;;;;;5016425;28;20992;-82
2023/07/29 01:36:39;;;;;;;2.87;0.90;;;17.10;99.90;;;;;;5016873;28;20435;-82
2023/07/29 01:39:08;;;;;;;1.03;0.80;;;17.00;99.90;;;;;;5016803;28;20439;-83
2023/07/29 01:41:36;;;;;;;0.80;0.80;;;17.10;99.90;;;;;;5016405;28;21018;-83
2023/07/29 01:44:03;;;;;;;0.50;0.50;;;17.00;99.90;;;;;;5016605;28;20471;-82
2023/07/29 01:46:30;;;;;;;1.07;0.80;;;17.00;99.90;;;;;;5016339;28;20455;-82
2023/07/29 01:48:56;;;;;;;0.87;0.60;;;17.00;99.90;;;;;;5016489;28;20484;-83
2023/07/29 01:51:23;;;;;;;0.53;0.53;;;16.90;99.90;;;;;;5016252;28;20964;-83
2023/07/29 01:53:50;;;;;;;0.70;0.60;;;16.90;99.90;;;;;;5016400;28;20475;-83
2023/07/29 01:56:18;;;;;;;0.53;0.50;;;16.90;99.90;;;;;;5016499;28;20450;-83
2023/07/29 01:58:45;;;;;;;0.67;0.50;;;16.90;99.90;;;;;;5016401;28;20446;-83
2023/07/29 02:01:11;;;;;;;0.60;0.53;;;16.90;99.90;;;;;;5016121;28;20446;-83
2023/07/29 02:03:38;;;;;;;0.70;0.60;;;16.90;99.90;;;;;;5015917;28;20476;-83
2023/07/29 02:06:05;;;;;;;0.57;0.50;;;16.90;99.90;;;;;;5016302;28;20451;-83
2023/07/29 02:08:32;;;;;;;1.23;0.70;;;16.90;99.90;;;;;;5015889;28;20479;-83
2023/07/29 02:10:58;;;;;;;1.43;0.60;;;16.90;99.90;;;;;;5016201;28;20443;-83
2023/07/29 02:13:26;;;;;;;0.53;0.53;;;16.90;99.90;;;;;;5015810;28;20467;-83
2023/07/29 02:15:54;;;;;;;0.70;0.70;;;16.90;99.90;;;;;;5015758;28;20451;-83
2023/07/29 02:18:20;;;;;;;0.77;0.60;;;16.90;99.90;;;;;;5016019;28;20460;-84
2023/07/29 02:20:49;;;;;;;0.70;0.70;;;16.80;99.90;;;;;;5015686;28;20452;-83
2023/07/29 02:23:16;;;;;;;0.80;0.80;;;16.80;99.90;;;;;;5015907;28;20475;-83
2023/07/29 02:25:42;;;;;;;0.60;0.60;;;16.80;99.90;;;;;;5015650;28;20459;-83
2023/07/29 02:28:09;;;;;;;1.97;0.60;;;16.90;99.90;;;;;;5015765;28;20461;-83
2023/07/29 02:30:37;;;;;;;0.60;0.60;;;16.80;99.90;;;;;;5016068;28;20463;-83
2023/07/29 02:33:04;;;;;;;0.60;0.60;;;16.80;99.90;;;;;;5015734;28;20467;-83
2023/07/29 02:35:31;;;;;;;2.47;0.60;;;16.80;99.90;;;;;;5015409;28;20941;-83
2023/07/29 02:37:57;;;;;;;0.90;0.70;;;16.80;99.90;;;;;;5015936;28;20485;-82
2023/07/29 02:40:26;;;;;;;1.43;0.60;;;16.80;99.90;;;;;;5014756;28;20455;-82
2023/07/29 02:42:53;;;;;;;1.40;1.00;;;16.80;99.90;;;;;;5014726;28;21012;-82
2023/07/29 02:45:20;;;;;;;0.70;0.70;;;16.80;99.90;;;;;;5016265;28;20444;-83
2023/07/29 02:47:48;;;;;;;0.70;0.70;;;16.80;99.90;;;;;;5015484;28;20458;-82
2023/07/29 02:50:15;;;;;;;0.63;0.63;;;16.80;99.90;;;;;;5015106;28;20498;-82
2023/07/29 02:52:41;;;;;;;1.17;0.50;;;16.80;99.90;;;;;;5015399;28;20457;-82
2023/07/29 02:55:08;;;;;;;0.60;0.53;;;16.90;99.90;;;;;;5015427;28;20451;-82
2023/07/29 02:57:35;;;;;;;0.90;0.53;;;16.90;99.90;;;;;;5015277;28;20455;-82
2023/07/29 03:00:02;;;;;;;1.47;0.50;;;17.00;99.90;;;;;;5015305;28;20440;-82
2023/07/29 03:02:29;;;;;;;1.00;0.80;;;17.00;99.90;;;;;;5015218;28;20457;-82
2023/07/29 03:04:57;;;;;;;0.70;0.70;;;17.00;99.90;;;;;;5015095;28;20464;-82
2023/07/29 03:07:23;;;;;;;0.50;0.50;;;17.00;99.90;;;;;;5015146;28;20450;-82
2023/07/29 03:09:50;;;;;;;0.60;0.60;;;17.00;99.90;;;;;;5015002;28;20487;-82
2023/07/29 03:12:17;;;;;;;0.80;0.70;;;17.00;99.90;;;;;;5014760;28;20440;-82
2023/07/29 03:14:44;;;;;;;0.80;0.80;;;17.00;99.90;;;;;;5014620;28;20474;-82
2023/07/29 03:17:10;;;;;;;0.80;0.80;;;16.90;99.90;;;;;;5014915;28;20443;-83
2023/07/29 03:19:37;;;;;;;1.43;0.70;;;16.90;99.90;;;;;;5015032;28;20444;-82
2023/07/29 03:22:05;;;;;;;0.60;0.60;;;16.90;99.90;;;;;;5014852;28;20559;-82
2023/07/29 03:24:32;;;;;;;1.73;0.70;;;16.90;99.90;;;;;;5014448;28;20980;-82
2023/07/29 03:26:59;;;;;;;1.67;0.70;;;17.00;99.90;;;;;;5014770;28;20593;-82
2023/07/29 03:29:26;;;;;;;0.80;0.80;;;16.90;99.90;;;;;;5014356;28;20483;-82
2023/07/29 03:31:53;;;;;;;0.70;0.70;;;17.00;99.90;;;;;;5014793;28;20455;-82
2023/07/29 03:34:19;;;;;;;0.80;0.80;;;16.90;99.90;;;;;;5014067;28;20483;-83
2023/07/29 03:36:47;;;;;;;0.60;0.60;;;16.90;99.90;;;;;;5014613;28;20459;-82
2023/07/29 03:39:15;;;;;;;1.00;0.70;;;17.00;99.90;;;;;;5014550;28;20454;-82
2023/07/29 03:41:42;;;;;;;0.70;0.70;;;17.00;99.90;;;;;;5014178;28;20461;-82
2023/07/29 03:44:09;;;;;;;0.67;0.63;;;17.00;99.90;;;;;;5014000;28;20878;-82
2023/07/29 03:46:36;;;;;;;0.70;0.60;;;17.10;99.90;;;;;;5014084;28;20822;-82
2023/07/29 03:49:03;;;;;;;0.60;0.60;;;17.10;99.90;;;;;;5014002;28;20480;-82
2023/07/29 03:51:29;;;;;;;0.83;0.83;;;17.10;99.90;;;;;;5014252;28;20440;-82
2023/07/29 03:53:56;;;;;;;1.33;0.90;;;17.10;99.90;;;;;;5013898;28;20472;-83
2023/07/29 03:56:24;;;;;;;2.30;0.97;;;17.10;99.90;;;;;;5014136;28;20459;-82
2023/07/29 03:58:51;;;;;;;0.90;0.70;;;17.10;99.90;;;;;;5014226;28;20952;-82
2023/07/29 04:01:18;;;;;;;1.07;0.83;;;17.10;99.90;;;;;;5014178;28;20578;-82
2023/07/29 04:03:46;;;;;;;0.60;0.60;;;17.10;99.90;;;;;;5013731;28;20996;-82
2023/07/29 04:06:12;;;;;;;1.13;0.80;;;17.20;99.90;;;;;;5013859;28;20431;-82
2023/07/29 04:08:39;;;;;;;0.80;0.50;;;17.10;99.90;;;;;;5013985;28;20443;-82
2023/07/29 04:11:06;;;;;;;0.70;0.70;;;17.10;99.90;;;;;;5014004;28;20539;-83
2023/07/29 04:13:34;;;;;;;0.97;0.80;;;17.10;99.90;;;;;;5013898;28;20479;-83
2023/07/29 04:16:01;;;;;;;0.70;0.70;;;17.20;99.90;;;;;;5013959;28;20506;-83
2023/07/29 04:18:28;;;;;;;0.87;0.60;;;17.20;99.90;;;;;;5013852;28;20521;-85
2023/07/29 04:20:55;;;;;;;2.03;0.70;;;17.10;99.90;;;;;;5013752;28;20448;-86
2023/07/29 04:23:22;;;;;;;4.20;1.00;;;17.10;99.90;;;;;;5014247;28;20456;-87
2023/07/29 04:25:49;;;;;;;0.90;0.90;;;17.00;99.90;;;;;;5013922;28;20779;-86
2023/07/29 04:28:16;;;;;;;2.60;0.80;;;16.80;99.90;;;;;;5013778;28;20439;-84
2023/07/29 04:30:44;;;;;;;2.57;0.83;;;16.80;99.90;;;;;;5014087;28;20479;-83
2023/07/29 04:33:11;;;;;;;1.70;1.03;;;16.80;99.90;;;;;;5013311;28;20490;-83
2023/07/29 04:35:38;;;;;;;1.60;1.17;;;16.70;99.90;;;;;;5013210;28;20506;-81
2023/07/29 04:38:05;;;;;;;0.63;0.63;;;16.70;99.90;;;;;;5013374;28;20944;-81
2023/07/29 04:40:34;;;;;;;1.13;0.80;;;16.70;99.90;;;;;;5013645;28;20451;-81
2023/07/29 04:43:01;;;;;;;1.00;0.90;;;16.60;99.90;;;;;;5013286;28;20436;-80
2023/07/29 04:45:29;;;;;;;0.73;0.67;;;16.60;99.90;;;;;;5013563;28;20454;-81
2023/07/29 04:47:57;;;;;;;1.27;0.93;;;16.60;99.90;;;;;;5013569;28;20448;-81
2023/07/29 04:50:24;;;;;;;0.60;0.60;;;16.60;99.90;;;;;;5013276;28;20992;-81
2023/07/29 04:52:52;;;;;;;1.70;0.70;;;16.60;99.90;;;;;;5013456;28;20542;-81
2023/07/29 04:55:19;;;;;;;0.83;0.70;;;16.50;99.90;;;;;;5013713;28;20444;-81
2023/07/29 04:57:46;;;;;;;1.50;0.70;;;16.50;99.90;;;;;;5013465;28;20895;-81
2023/07/29 05:00:13;;;;;;;0.60;0.60;;;16.60;99.90;;;;;;5013394;28;20444;-80
2023/07/29 05:02:40;;;;;;;3.80;0.97;;;16.50;99.90;;;;;;5013065;28;20859;-81
2023/07/29 05:05:08;;;;;;;4.10;0.70;;;16.50;99.90;;;;;;5015389;28;20471;-81
2023/07/29 05:07:35;;;;;;;0.83;0.70;;;16.50;99.90;;;;;;5017384;28;20463;-81
2023/07/29 05:10:02;;;;;;;0.60;0.60;;;16.50;99.90;;;;;;5016975;28;20562;-83
2023/07/29 05:12:29;;;;;;;2.30;0.70;;;16.50;99.90;;;;;;5017286;28;20460;-85
2023/07/29 05:14:56;;;;;;;0.80;0.80;;;16.50;99.90;;;;;;5017156;28;20475;-84
2023/07/29 05:17:23;;;;;;;0.90;0.80;;;16.50;99.90;;;;;;5017179;28;20455;-84
2023/07/29 05:19:50;;;;;;;3.03;0.80;;;16.60;99.90;;;;;;5017148;28;20451;-84
2023/07/29 05:22:18;;;;;;;1.00;0.70;;;16.60;99.90;;;;;;5017098;28;20447;-84
2023/07/29 05:24:45;;;;;;;0.77;0.70;;;16.60;99.90;;;;;;5017009;28;20467;-84
2023/07/29 05:27:11;;;;;;;1.20;0.73;;;16.60;99.90;;;;;;5016712;28;21010;-84
2023/07/29 05:29:38;;;;;;;0.97;0.83;;;16.60;99.90;;;;;;5017097;28;20486;-84
2023/07/29 05:32:06;;;;;;;0.83;0.83;;;16.70;99.90;;;;;;5017189;28;20535;-84
2023/07/29 05:34:32;;;;;;;1.53;1.20;;;16.80;99.90;;;;;;5016346;28;20494;-84
2023/07/29 05:36:59;;;;;;;2.90;0.93;;;16.80;99.90;;;;;;5016482;28;20944;-84
2023/07/29 05:39:27;;;;;;;1.00;0.90;;;16.90;99.90;;;;;;5016781;28;20502;-84
2023/07/29 05:41:54;;;;;;;1.37;0.60;;;16.90;99.90;;;;;;5016648;28;20451;-84
2023/07/29 05:44:21;;;;;;;0.60;0.53;;;17.00;99.90;;;;;;5016915;28;20475;-84
2023/07/29 05:46:48;;;;;;;1.47;1.10;;;17.10;99.90;;;;;;5016654;28;20823;-84
2023/07/29 05:49:15;;;;;;;2.50;0.93;;;17.00;99.90;;;;;;5016163;28;20509;-84
2023/07/29 05:51:41;;;;;;;0.80;0.70;;;17.10;99.90;;;;;;5016598;28;20553;-84
2023/07/29 05:54:08;;;;;;;1.50;1.00;;;17.10;99.90;;;;;;5016892;28;20842;-84
2023/07/29 05:56:36;;;;;;;0.80;0.80;;;17.10;99.90;;;;;;5016140;28;20974;-85
2023/07/29 05:59:03;;;;;;;0.83;0.77;;;17.20;99.90;;;;;;5016251;28;20940;-84
2023/07/29 06:01:30;;;;;;;1.13;0.87;;;17.20;99.90;;;;;;5016395;28;20439;-84
2023/07/29 06:03:56;;;;;;;0.53;0.53;;;17.30;99.90;;;;;;5016254;28;20490;-84
2023/07/29 06:06:23;;;;;;;1.13;0.93;;;17.30;99.90;;;;;;5016103;28;20432;-85
2023/07/29 06:08:51;;;;;;;0.90;0.40;;;17.40;99.90;;;;;;5015964;28;20941;-84
2023/07/29 06:11:18;;;;;;;0.63;0.63;;;17.50;99.90;;;;;;5016200;28;20490;-84
2023/07/29 06:13:48;;;;;;;0.40;0.40;;;17.50;99.90;;;;;;5015797;28;20463;-84
2023/07/29 06:16:15;;;;;;;0.50;0.50;;;17.60;99.90;;;;;;5015933;28;20439;-84
2023/07/29 06:18:41;;;;;;;0.77;0.77;;;17.60;99.90;;;;;;5016096;28;20458;-82
2023/07/29 06:21:11;;;;;;;0.60;0.60;;;17.70;99.90;;;;;;5015806;28;20975;-82
2023/07/29 06:23:38;;;;;;;0.67;0.67;;;17.80;99.90;;;;;;5015894;28;20486;-82
2023/07/29 06:26:06;;;;;;;2.43;0.70;;;17.80;99.90;;;;;;5015943;28;20454;-82
2023/07/29 06:28:33;;;;;;;1.97;0.90;;;17.70;99.90;;;;;;5015500;28;20828;-82
2023/07/29 06:31:02;;;;;;;0.57;0.57;;;17.70;99.90;;;;;;5015739;28;20493;-82
2023/07/29 06:33:28;;;;;;;1.00;0.60;;;17.60;99.90;;;;;;5015555;28;20483;-82
2023/07/29 06:35:55;;;;;;;0.73;0.73;;;17.70;99.90;;;;;;5016495;28;20808;-81
2023/07/29 06:38:22;;;;;;;0.60;0.60;;;17.60;99.90;;;;;;5015726;28;20502;-81
2023/07/29 06:40:49;;;;;;;0.53;0.53;;;17.50;99.90;;;;;;5015669;28;20462;-81
2023/07/29 06:43:16;;;;;;;0.80;0.60;;;17.50;99.90;;;;;;5015316;28;20819;-81
2023/07/29 06:45:42;;;;;;;0.93;0.60;;;17.50;99.90;;;;;;5015346;28;20808;-81
2023/07/29 06:48:11;;;;;;;0.80;0.60;;;17.50;99.90;;;;;;5015295;28;20463;-81
2023/07/29 06:50:37;;;;;;;0.60;0.60;;;17.40;99.90;;;;;;5015124;28;20479;-81
2023/07/29 06:53:04;;;;;;;3.07;0.90;;;17.40;99.90;;;;;;5015331;28;20476;-81
2023/07/29 06:55:31;;;;;;;0.77;0.77;;;17.30;99.90;;;;;;5015499;28;20451;-81
2023/07/29 06:57:58;;;;;;;3.93;0.57;;;17.30;99.90;;;;;;5015391;28;20487;-81
2023/07/29 07:00:25;;;;;;;0.40;0.40;;;17.30;99.90;;;;;;5015524;28;20446;-80
2023/07/29 07:02:51;;;;;;;0.97;0.57;;;17.30;99.90;;;;;;5014901;28;20436;-83
2023/07/29 07:05:20;;;;;;;0.60;0.50;;;17.20;99.90;;;;;;5015114;28;20451;-83
2023/07/29 07:07:46;;;;;;;0.40;0.40;;;17.20;99.90;;;;;;5015577;28;20879;-83
2023/07/29 07:10:14;;;;;;;1.00;0.90;;;17.10;99.90;;;;;;5014738;28;20479;-82
2023/07/29 07:12:40;;;;;;;1.77;0.50;;;17.10;99.90;;;;;;5014825;28;20789;-82
2023/07/29 07:15:08;;;;;;;0.60;0.60;;;17.10;99.90;;;;;;5014621;28;20475;-82
2023/07/29 07:17:35;;;;;;;0.60;0.47;;;17.10;99.90;;;;;;5015002;28;20436;-82
2023/07/29 07:20:03;;;;;;;1.67;0.87;;;17.10;99.90;;;;;;5015275;28;20428;-82
2023/07/29 07:22:31;;;;;;;0.73;0.60;;;17.10;99.90;;;;;;5014908;28;20436;-82
2023/07/29 07:24:58;;;;;;;0.50;0.50;;;17.10;99.90;;;;;;5015026;28;20463;-82
2023/07/29 07:27:24;;;;;;;0.67;0.60;;;17.10;99.90;;;;;;5013986;28;20455;-82
2023/07/29 07:29:51;;;;;;;0.70;0.53;;;17.20;99.90;;;;;;5014921;28;20451;-82
2023/07/29 07:32:18;;;;;;;0.63;0.60;;;17.20;99.90;;;;;;5014714;28;20451;-83
2023/07/29 07:34:45;;;;;;;0.50;0.50;;;17.30;99.90;;;;;;5014242;28;20487;-83
2023/07/29 07:37:11;;;;;;;0.50;0.40;;;17.40;99.90;;;;;;5014369;28;20452;-83
2023/07/29 07:39:40;;;;;;;1.47;0.60;;;17.40;99.90;;;;;;5014588;28;20451;-83
2023/07/29 07:42:07;;;;;;;0.60;0.60;;;17.40;99.90;;;;;;5014188;28;20466;-82
2023/07/29 07:44:34;;;;;;;0.60;0.60;;;17.50;99.90;;;;;;5014419;28;20479;-83
2023/07/29 07:47:00;;;;;;;0.60;0.43;;;17.50;99.90;;;;;;5014407;28;20452;-83
2023/07/29 07:49:27;;;;;;;1.43;0.60;;;17.60;99.90;;;;;;5014096;28;20781;-83
2023/07/29 07:51:54;;;;;;;0.47;0.47;;;17.60;99.90;;;;;;5013982;28;21006;-83
2023/07/29 07:54:21;;;;;;;0.50;0.50;;;17.80;99.90;;;;;;5014258;28;20482;-83
2023/07/29 07:56:49;;;;;;;0.83;0.47;;;17.70;99.90;;;;;;5014287;28;20462;-83
2023/07/29 07:59:15;;;;;;;0.77;0.40;;;17.70;99.90;;;;;;5014085;28;20459;-84
2023/07/29 08:01:42;;;;;;;0.40;0.30;;;17.80;99.90;;;;;;5014198;28;20448;-82
2023/07/29 08:04:09;;;;;;;1.10;0.80;;;17.80;99.90;;;;;;5013769;28;20483;-84
2023/07/29 08:06:36;;;;;;;0.70;0.70;;;17.80;99.90;;;;;;5013814;28;20455;-84
2023/07/29 08:09:03;;;;;;;0.40;0.40;;;17.80;99.90;;;;;;5014097;28;20455;-84
2023/07/29 08:11:30;;;;;;;0.50;0.50;;;17.80;99.90;;;;;;5014065;28;20483;-85
2023/07/29 08:13:59;;;;;;;1.27;0.60;;;18.00;99.90;;;;;;5013941;28;20482;-85
2023/07/29 08:16:26;;;;;;;1.00;0.60;;;18.00;99.90;;;;;;5013697;28;20972;-84
2023/07/29 08:18:53;;;;;;;0.43;0.37;;;18.00;99.90;;;;;;5013857;28;20440;-84
2023/07/29 08:21:19;;;;;;;0.60;0.60;;;18.10;99.90;;;;;;5013610;28;20551;-84
2023/07/29 08:23:46;;;;;;;0.60;0.50;;;18.20;99.90;;;;;;5013625;28;21035;-84
2023/07/29 08:26:13;;;;;;;0.50;0.40;;;18.30;99.90;;;;;;5013939;28;20461;-84
2023/07/29 08:28:40;;;;;;;0.60;0.50;;;18.50;99.90;;;;;;5013558;28;20950;-84
2023/07/29 08:31:08;;;;;;;3.40;0.60;;;18.70;99.90;;;;;;5013678;28;20483;-85
2023/07/29 08:33:35;;;;;;;0.50;0.40;;;18.90;99.90;;;;;;5013294;28;20487;-84
2023/07/29 08:36:03;;;;;;;0.90;0.50;;;19.10;99.90;;;;;;5013784;28;20446;-85
2023/07/29 08:38:29;;;;;;;0.70;0.60;;;19.30;99.90;;;;;;5013578;28;20436;-87
2023/07/29 08:41:05;;;;;;;0.60;0.50;;;19.50;99.90;;;;;;5014612;28;20804;-87
2023/07/29 08:43:33;;;;;;;0.57;0.50;;;19.70;99.90;;;;;;5013800;28;20471;-87
2023/07/29 08:46:01;;;;;;;0.87;0.53;;;19.90;99.90;;;;;;5013974;28;20454;-88
2023/07/29 08:48:37;;;;;;;0.70;0.50;;;20.00;99.90;;;;;;5013753;28;20447;-87
2023/07/29 08:51:06;;;;;;;1.23;0.60;;;20.00;99.90;;;;;;5013882;28;20466;-87
2023/07/29 08:53:33;;;;;;;0.80;0.60;;;19.80;99.90;;;;;;5013720;28;20476;-86
2023/07/29 08:56:00;;;;;;;0.50;0.50;;;19.60;99.90;;;;;;5013372;28;20806;-86
2023/07/29 08:58:27;;;;;;;0.50;0.50;;;19.60;99.90;;;;;;5013723;28;20466;-86
2023/07/29 09:00:54;;;;;;;0.63;0.63;;;19.60;99.90;;;;;;5013775;28;20502;-86
2023/07/29 09:03:21;;;;;;;0.50;0.50;;;19.70;99.90;;;;;;5013761;28;20467;-87
2023/07/29 09:05:50;;;;;;;0.60;0.50;;;19.80;99.90;;;;;;5013834;28;20446;-88
2023/07/29 09:08:17;;;;;;;1.83;0.67;;;19.80;99.90;;;;;;5013524;28;20450;-86
2023/07/29 09:10:44;;;;;;;0.80;0.60;;;20.00;99.90;;;;;;5013211;28;20478;-86
2023/07/29 09:13:10;;;;;;;0.83;0.63;;;20.10;99.90;;;;;;5013465;28;20477;-86
2023/07/29 09:15:38;;;;;;;0.73;0.70;;;20.40;99.90;;;;;;5013203;28;20947;-86
2023/07/29 09:18:12;;;;;;;0.50;0.50;;;20.70;99.90;;;;;;5014282;28;20452;-86
2023/07/29 09:20:38;;;;;;;0.67;0.67;;;20.90;99.90;;;;;;5013015;28;20447;-86
2023/07/29 09:23:09;;;;;;;0.50;0.50;;;21.30;99.90;;;;;;5013193;28;21018;-86
2023/07/29 09:25:37;;;;;;;0.70;0.60;;;21.40;99.90;;;;;;5013050;28;20940;-86
2023/07/29 09:28:10;;;;;;;0.60;0.47;;;21.60;99.90;;;;;;5013049;28;20432;-86
2023/07/29 09:30:38;;;;;;;0.60;0.57;;;21.70;99.90;;;;;;5013474;28;20469;-86
2023/07/29 09:33:04;;;;;;;1.23;1.00;;;21.70;99.90;;;;;;5013488;28;20483;-86
2023/07/29 09:35:34;;;;;;;0.90;0.60;;;21.60;99.90;;;;;;5013316;28;21043;-83
2023/07/29 09:38:01;;;;;;;0.60;0.50;;;21.50;99.90;;;;;;5013045;28;20447;-83
2023/07/29 09:40:36;;;;;;;0.80;0.70;;;21.60;99.90;;;;;;5013427;28;20940;-87
2023/07/29 09:43:02;;;;;;;0.77;0.77;;;21.80;99.90;;;;;;5013339;28;20435;-88
2023/07/29 09:45:29;;;;;;;0.70;0.70;;;21.90;99.90;;;;;;5013468;28;20434;-87
2023/07/29 09:47:58;;;;;;;1.00;0.80;;;21.90;99.90;;;;;;5013200;28;20451;-87
2023/07/29 09:50:25;;;;;;;3.63;0.63;;;21.90;99.90;;;;;;5013786;28;20207;-88
2023/07/29 09:52:53;;;;;;;0.60;0.60;;;21.70;99.90;;;;;;5016529;28;20990;-87
2023/07/29 09:55:22;;;;;;;0.93;0.70;;;21.60;99.90;;;;;;5017336;28;20412;-87
2023/07/29 09:57:54;;;;;;;0.70;0.70;;;21.80;99.90;;;;;;5016880;28;20450;-87
2023/07/29 10:00:21;;;;;;;0.70;0.67;;;21.70;99.90;;;;;;5016814;28;20457;-87
2023/07/29 10:02:48;;;;;;;0.80;0.70;;;21.80;99.90;;;;;;5016896;28;20443;-87
2023/07/29 10:05:16;;;;;;;0.60;0.60;;;21.90;99.90;;;;;;5016627;28;20423;-88
2023/07/29 10:07:42;;;;;;;0.70;0.70;;;22.00;99.90;;;;;;5016290;28;20958;-87
2023/07/29 10:10:10;;;;;;;0.80;0.70;;;22.20;99.90;;;;;;5016886;28;20442;-88
2023/07/29 10:12:36;;;;;;;1.13;0.80;;;22.00;99.90;;;;;;5016403;28;20231;-90
2023/07/29 10:15:06;;;;;;;1.00;0.73;;;22.20;99.90;;;;;;5016720;28;20227;-88
2023/07/29 10:17:36;;;;;;;1.90;1.10;;;22.20;99.90;;;;;;5016848;28;20431;-88
2023/07/29 10:20:05;;;;;;;0.90;0.70;;;22.20;99.90;;;;;;5016631;28;20215;-87
2023/07/29 10:22:36;;;;;;;0.70;0.70;;;22.30;99.90;;;;;;5016605;28;20485;-87
2023/07/29 10:25:05;;;;;;;1.80;0.90;;;22.50;99.90;;;;;;5016312;28;20224;-87
2023/07/29 10:27:39;;;;;;;0.87;0.87;;;22.90;99.90;;;;;;5016308;28;20816;-87
2023/07/29 10:30:09;;;;;;;1.20;0.60;;;23.00;99.90;;;;;;5016490;28;20187;-86
2023/07/29 10:32:36;;;;;;;3.03;0.63;;;23.20;99.90;;;;;;5015752;28;20707;-87
2023/07/29 10:35:03;;;;;;;0.95;0.85;;;23.40;99.90;;;;;;5015880;28;20609;-87
2023/07/29 10:37:31;;;;;;;0.63;0.60;;;23.60;99.90;;;;;;5016167;28;20207;-87
2023/07/29 10:39:57;;;;;;;0.77;0.70;;;23.90;99.90;;;;;;5016137;28;20208;-87
2023/07/29 10:42:24;;;;;;;0.85;0.63;;;23.90;99.90;;;;;;5015818;28;20196;-86
2023/07/29 10:44:52;;;;;;;0.60;0.60;;;23.80;99.90;;;;;;5015823;28;20230;-87
2023/07/29 10:47:22;;;;;;;0.70;0.70;;;23.60;99.90;;;;;;5016051;28;20215;-86
2023/07/29 10:49:53;;;;;;;0.87;0.70;;;23.50;99.90;;;;;;5015805;28;20576;-86
2023/07/29 10:52:38;;;;;;;0.70;0.70;;;23.50;99.90;;;;;;5015858;28;20208;-86
2023/07/29 10:55:23;;;;;;;0.52;0.50;;;23.60;99.90;;;;;;5015665;28;20224;-86
2023/07/29 10:57:49;;;;;;;0.70;0.70;;;23.60;99.90;;;;;;5015740;28;20192;-88
2023/07/29 11:00:17;;;;;;;0.88;0.88;;;23.80;99.90;;;;;;5015117;28;20695;-85
2023/07/29 11:02:57;;;;;;;0.70;0.60;;;24.00;99.90;;;;;;5014556;28;20200;-86
2023/07/29 11:05:24;;;;;;;0.88;0.88;;;24.10;99.90;;;;;;5015110;28;20558;-85
2023/07/29 11:07:51;;;;;;;0.80;0.70;;;24.20;99.90;;;;;;5015237;28;20204;-85
2023/07/29 11:10:18;;;;;;;1.95;0.60;;;24.10;99.90;;;;;;5015436;28;20621;-85
2023/07/29 11:12:47;;;;;;;0.60;0.50;;;24.00;99.90;;;;;;5015409;28;20555;-86
2023/07/29 11:15:22;;;;;;;0.85;0.73;;;23.90;99.90;;;;;;5014949;28;20208;-86
2023/07/29 11:17:52;;;;;;;1.92;0.70;;;23.90;99.90;;;;;;5017048;28;20207;-86
2023/07/29 11:20:20;;;;;;;0.60;0.60;;;23.80;99.90;;;;;;5015609;28;20212;-86
2023/07/29 11:22:47;;;;;;;1.17;1.08;;;23.70;99.90;;;;;;5015080;28;20200;-85
2023/07/29 11:25:16;;;;;;;1.15;0.70;;;23.70;99.90;;;;;;5015102;28;20207;-86
2023/07/29 11:27:43;;;;;;;0.50;0.50;;;23.80;99.90;;;;;;5015589;28;20208;-86
2023/07/29 11:30:11;;;;;;;0.52;0.45;;;23.70;99.90;;;;;;5015139;28;20207;-88
2023/07/29 11:32:39;;;;;;;0.60;0.60;;;23.70;99.90;;;;;;5015186;28;20314;-87
2023/07/29 11:35:09;;;;;;;0.80;0.80;;;23.70;99.90;;;;;;5014444;28;20712;-87
2023/07/29 11:37:36;;;;;;;0.52;0.50;;;23.80;99.90;;;;;;5015361;28;20200;-89
2023/07/29 11:40:05;;;;;;;0.60;0.52;;;23.80;99.90;;;;;;5015003;28;20563;-86
2023/07/29 11:42:33;;;;;;;0.77;0.77;;;23.70;99.90;;;;;;5014584;28;20624;-81
2023/07/29 11:45:00;;;;;;;0.68;0.68;;;23.80;99.90;;;;;;5014153;28;20783;-80
2023/07/29 11:47:27;;;;;;;0.80;0.80;;;23.80;99.90;;;;;;5014487;28;20554;-80
2023/07/29 11:49:54;;;;;;;0.50;0.50;;;23.90;99.90;;;;;;5014120;28;20673;-80
2023/07/29 11:52:22;;;;;;;0.70;0.70;;;23.90;99.90;;;;;;5014337;28;20208;-80
2023/07/29 11:54:50;;;;;;;0.70;0.60;;;23.90;99.90;;;;;;5014326;28;20220;-80
2023/07/29 11:57:19;;;;;;;0.70;0.60;;;23.90;99.90;;;;;;5014661;28;20201;-80
2023/07/29 11:59:47;;;;;;;0.68;0.60;;;24.00;99.90;;;;;;5014301;28;20258;-81
2023/07/29 12:02:16;;;;;;;2.05;0.88;;;24.00;99.90;;;;;;5014221;28;20195;-82
2023/07/29 12:04:44;;;;;;;0.80;0.80;;;23.90;99.90;;;;;;5014028;28;20239;-82
2023/07/29 12:07:13;;;;;;;1.00;1.00;;;23.80;99.90;;;;;;5014093;28;20215;-82
2023/07/29 12:09:42;;;;;;;0.90;0.80;;;23.90;99.90;;;;;;5014226;28;20208;-84
2023/07/29 12:12:09;;;;;;;0.82;0.80;;;23.80;99.90;;;;;;5014008;28;20224;-82
2023/07/29 12:14:36;;;;;;;0.70;0.60;;;23.80;99.90;;;;;;5013532;28;20571;-81
2023/07/29 12:17:05;;;;;;;0.80;0.70;;;23.80;99.90;;;;;;5014010;28;20208;-81
2023/07/29 12:19:35;;;;;;;0.60;0.60;;;23.90;99.90;;;;;;5013635;28;20208;-81
2023/07/29 12:22:04;;;;;;;1.45;0.60;;;24.00;99.90;;;;;;5013592;28;20200;-81
2023/07/29 12:24:31;;;;;;;0.80;0.80;;;24.00;99.90;;;;;;5013829;28;20234;-81
2023/07/29 12:26:59;;;;;;;0.80;0.80;;;24.10;99.90;;;;;;5013560;28;20681;-82
2023/07/29 12:29:27;;;;;;;1.63;0.57;;;24.00;99.90;;;;;;5014104;28;20208;-81
2023/07/29 12:32:00;;;;;;;1.23;0.80;;;24.10;99.90;;;;;;5013378;28;20223;-82
2023/07/29 12:34:28;;;;;;;0.88;0.68;;;24.10;99.90;;;;;;5013431;28;20232;-81
2023/07/29 12:36:55;;;;;;;0.70;0.70;;;24.10;99.90;;;;;;5013444;28;20705;-81
2023/07/29 12:39:24;;;;;;;0.90;0.80;;;24.10;99.90;;;;;;5013737;28;20611;-81
2023/07/29 12:41:53;;;;;;;0.95;0.80;;;24.10;99.90;;;;;;5013650;28;20204;-81
2023/07/29 12:44:23;;;;;;;0.75;0.70;;;24.10;99.90;;;;;;5013581;28;20224;-81
2023/07/29 12:46:50;;;;;;;0.90;0.90;;;24.10;99.90;;;;;;5013398;28;20207;-81
2023/07/29 12:49:17;;;;;;;2.33;0.80;;;24.10;99.90;;;;;;5013575;28;20199;-81
2023/07/29 12:51:43;;;;;;;1.67;0.80;;;24.10;99.90;;;;;;5013344;28;20594;-81